Time,TemperatureF,DewpointF,PressureIn,WindDirection,WindDirectionDegrees,WindSpeedMPH,WindSpeedGustMPH,Humidity,HourlyPrecipIn,Conditions,Clouds,dailyrainin,SolarRadiationWatts/m^2,SoftwareType,DateUTC
2015-07-30 00:01:00,67.9,41.3,29.94,SE,128,1.1,0.0,38,0.00,CLR,SCT,0.00,0.0,WeatherDisplay:10.37,2015-07-30 07:01:00,
2015-07-30 00:06:00,67.7,41.2,29.94,SE,128,1.1,1.1,38,0.00,CLR,SCT,0.00,0.0,WeatherDisplay:10.37,2015-07-30 07:06:00,
2015-07-30 00:11:00,67.6,41.7,29.94,SE,128,2.3,2.3,39,0.00,CLR,SCT,0.00,0.0,WeatherDisplay:10.37,2015-07-30 07:11:00,
2015-07-30 00:16:00,67.6,41.7,29.94,SE,128,2.3,2.3,39,0.00,CLR,SCT,0.00,0.0,WeatherDisplay:10.37,2015-07-30 07:16:00,
2015-07-30 00:21:00,67.4,41.6,29.94,SE,128,1.1,1.1,39,0.00,CLR,SCT,0.00,0.0,WeatherDisplay:10.37,2015-07-30 07:21:00,
2015-07-30 00:31:00,67.3,41.5,29.94,SE,128,0.0,0.0,39,0.00,CLR,SCT,0.00,0.0,WeatherDisplay:10.37,2015-07-30 07:31:00,
2015-07-30 00:36:00,67.2,41.4,29.94,SE,128,1.1,0.0,39,0.00,CLR,SCT,0.00,0.0,WeatherDisplay:10.37,2015-07-30 07:36:00,
2015-07-30 00:41:00,67.1,40.6,29.94,SE,128,1.1,1.1,38,0.00,CLR,SCT,0.00,0.0,WeatherDisplay:10.37,2015-07-30 07:41:00,
2015-07-30 00:46:00,67.1,40.6,29.94,SE,128,0.0,0.0,38,0.00,CLR,SCT,0.00,0.0,WeatherDisplay:10.37,2015-07-30 07:46:00,
2015-07-30 00:51:00,67.1,40.6,29.94,SE,128,1.1,1.1,38,0.00,CLR,SCT,0.00,0.0,WeatherDisplay:10.37,2015-07-30 07:51:00,
2015-07-30 00:56:00,67.1,40.6,29.94,SE,128,1.1,1.1,38,0.00,CLR,SCT,0.00,0.0,WeatherDisplay:10.37,2015-07-30 07:56:00,
2015-07-30 01:01:00,67.0,41.2,29.94,SE,128,1.1,1.1,39,0.00,CLR,SCT,0.00,0.0,WeatherDisplay:10.37,2015-07-30 08:01:00,
2015-07-30 01:06:00,66.9,41.1,29.94,SE,128,0.0,0.0,39,0.00,CLR,SCT,0.00,0.0,WeatherDisplay:10.37,2015-07-30 08:06:00,
2015-07-30 01:11:00,66.8,40.4,29.94,SE,128,0.0,0.0,38,0.00,CLR,SCT,0.00,0.0,WeatherDisplay:10.37,2015-07-30 08:11:00,
2015-07-30 01:16:00,66.9,40.5,29.94,SE,128,1.1,1.1,38,0.00,CLR,SCT,0.00,0.0,WeatherDisplay:10.37,2015-07-30 08:16:00,
2015-07-30 01:21:00,66.9,40.5,29.94,SE,128,2.3,2.3,38,0.00,CLR,SCT,0.00,0.0,WeatherDisplay:10.37,2015-07-30 08:21:00,
2015-07-30 01:26:00,67.0,40.5,29.94,NE,46,2.3,2.3,38,0.00,CLR,SCT,0.00,0.0,WeatherDisplay:10.37,2015-07-30 08:26:00,
2015-07-30 01:31:00,67.1,40.6,29.94,North,5,2.3,2.3,38,0.00,CLR,SCT,0.00,0.0,WeatherDisplay:10.37,2015-07-30 08:31:00,
2015-07-30 01:36:00,67.2,40.0,29.94,NW,324,2.3,2.3,37,0.00,CLR,SCT,0.00,0.0,WeatherDisplay:10.37,2015-07-30 08:36:00,
2015-07-30 01:41:00,67.3,39.4,29.94,NW,324,2.3,2.3,36,0.00,CLR,SCT,0.00,0.0,WeatherDisplay:10.37,2015-07-30 08:41:00,
2015-07-30 01:46:00,67.3,39.4,29.94,NW,325,2.3,2.3,36,0.00,CLR,SCT,0.00,0.0,WeatherDisplay:10.37,2015-07-30 08:46:00,
2015-07-30 01:51:00,67.2,40.0,29.94,NW,325,2.3,2.3,37,0.00,CLR,SCT,0.00,0.0,WeatherDisplay:10.37,2015-07-30 08:51:00,
2015-07-30 01:56:00,67.1,39.9,29.94,NW,318,3.5,3.5,37,0.00,CLR,SCT,0.00,0.0,WeatherDisplay:10.37,2015-07-30 08:56:00,
2015-07-30 02:01:00,67.0,39.9,29.94,NW,318,3.5,3.5,37,0.00,CLR,SCT,0.00,0.0,WeatherDisplay:10.37,2015-07-30 09:01:00,
2015-07-30 02:06:00,66.9,39.1,29.93,NW,326,3.5,3.5,36,0.00,CLR,SCT,0.00,0.0,WeatherDisplay:10.37,2015-07-30 09:06:00,
2015-07-30 02:11:00,66.8,39.0,29.93,NW,323,3.5,3.5,36,0.00,CLR,SCT,0.00,0.0,WeatherDisplay:10.37,2015-07-30 09:11:00,
2015-07-30 02:16:00,66.8,39.7,29.93,NW,323,2.0,2.0,37,0.00,CLR,SCT,0.00,0.0,WeatherDisplay:10.37,2015-07-30 09:16:00,
2015-07-30 02:21:00,66.7,39.6,29.93,NW,325,3.5,3.5,37,0.00,CLR,SCT,0.00,0.0,WeatherDisplay:10.37,2015-07-30 09:21:00,
2015-07-30 02:26:00,66.6,39.5,29.93,NW,325,1.1,1.1,37,0.00,CLR,SCT,0.00,0.0,WeatherDisplay:10.37,2015-07-30 09:26:00,
2015-07-30 02:31:00,66.5,39.4,29.93,NW,325,2.3,2.3,37,0.00,CLR,SCT,0.00,0.0,WeatherDisplay:10.37,2015-07-30 09:31:00,
2015-07-30 02:36:00,66.5,40.1,29.93,NW,325,2.3,2.3,38,0.00,CLR,SCT,0.00,0.0,WeatherDisplay:10.37,2015-07-30 09:36:00,
2015-07-30 02:41:00,66.4,39.3,29.93,NW,325,3.5,3.5,37,0.00,CLR,SCT,0.00,0.0,WeatherDisplay:10.37,2015-07-30 09:41:00,
2015-07-30 02:46:00,66.4,39.3,29.93,NW,326,2.3,2.3,37,0.00,CLR,SCT,0.00,0.0,WeatherDisplay:10.37,2015-07-30 09:46:00,
2015-07-30 02:51:00,66.3,38.5,29.93,NW,326,3.5,3.5,36,0.00,CLR,SCT,0.00,0.0,WeatherDisplay:10.37,2015-07-30 09:51:00,
2015-07-30 02:56:00,66.2,39.1,29.93,NW,326,1.1,0.0,37,0.00,CLR,SCT,0.00,0.0,WeatherDisplay:10.37,2015-07-30 09:56:00,
2015-07-30 03:01:00,66.0,38.3,29.93,NW,326,0.0,0.0,36,0.00,CLR,SCT,0.00,0.0,WeatherDisplay:10.37,2015-07-30 10:01:00,
2015-07-30 03:06:00,65.8,38.8,29.93,NW,326,1.1,0.0,37,0.00,CLR,SCT,0.00,0.0,WeatherDisplay:10.37,2015-07-30 10:06:00,
2015-07-30 03:11:00,65.7,38.7,29.93,NW,326,1.1,1.1,37,0.00,CLR,SCT,0.00,0.0,WeatherDisplay:10.37,2015-07-30 10:11:00,
2015-07-30 03:16:00,65.6,39.3,29.93,NW,326,2.3,2.3,38,0.00,CLR,SCT,0.00,0.0,WeatherDisplay:10.37,2015-07-30 10:16:00,
2015-07-30 03:21:00,65.4,39.1,29.93,NW,326,3.0,3.0,38,0.00,CLR,SCT,0.00,0.0,WeatherDisplay:10.37,2015-07-30 10:21:00,
2015-07-30 03:26:00,65.2,38.9,29.93,NW,326,1.1,1.1,38,0.00,CLR,SCT,0.00,0.0,WeatherDisplay:10.37,2015-07-30 10:26:00,
2015-07-30 03:31:00,65.0,39.4,29.93,NW,326,2.3,2.3,39,0.00,CLR,SCT,0.00,0.0,WeatherDisplay:10.37,2015-07-30 10:31:00,
2015-07-30 03:36:00,65.0,39.4,29.93,NW,326,2.0,2.0,39,0.00,CLR,SCT,0.00,0.0,WeatherDisplay:10.37,2015-07-30 10:36:00,
2015-07-30 03:41:00,64.9,39.3,29.93,NW,326,2.3,2.3,39,0.00,CLR,SCT,0.00,0.0,WeatherDisplay:10.37,2015-07-30 10:41:00,
2015-07-30 03:46:00,65.0,38.8,29.93,NW,324,3.5,3.5,38,0.00,CLR,SCT,0.00,0.0,WeatherDisplay:10.37,2015-07-30 10:46:00,
2015-07-30 03:51:00,65.1,39.5,29.93,NW,321,3.5,3.5,39,0.00,CLR,SCT,0.00,0.0,WeatherDisplay:10.37,2015-07-30 10:51:00,
2015-07-30 03:56:00,65.1,38.8,29.93,NW,321,2.0,2.0,38,0.00,CLR,SCT,0.00,0.0,WeatherDisplay:10.37,2015-07-30 10:56:00,
2015-07-30 04:01:00,65.0,38.8,29.93,NW,321,2.3,2.3,38,0.00,CLR,SCT,0.00,0.0,WeatherDisplay:10.37,2015-07-30 11:01:00,
2015-07-30 04:06:00,65.0,39.4,29.93,NW,321,2.3,2.3,39,0.00,CLR,SCT,0.00,0.0,WeatherDisplay:10.37,2015-07-30 11:06:00,
2015-07-30 04:11:00,64.9,38.7,29.93,NW,321,3.5,3.5,38,0.00,CLR,SCT,0.00,0.0,WeatherDisplay:10.37,2015-07-30 11:11:00,
2015-07-30 04:16:00,64.7,39.2,29.93,NW,321,2.3,2.3,39,0.00,CLR,SCT,0.00,0.0,WeatherDisplay:10.37,2015-07-30 11:16:00,
2015-07-30 04:21:00,64.5,39.0,29.93,North,355,1.1,0.0,39,0.00,CLR,SCT,0.00,0.0,WeatherDisplay:10.37,2015-07-30 11:21:00,
2015-07-30 04:26:00,64.4,38.9,29.93,NNE,33,1.1,0.0,39,0.00,CLR,SCT,0.00,0.0,WeatherDisplay:10.37,2015-07-30 11:26:00,
2015-07-30 04:31:00,64.3,39.4,29.93,NNE,33,0.0,0.0,40,0.00,CLR,SCT,0.00,0.0,WeatherDisplay:10.37,2015-07-30 11:31:00,
2015-07-30 04:36:00,64.1,39.9,29.93,NNE,33,0.0,0.0,41,0.00,CLR,SCT,0.00,0.0,WeatherDisplay:10.37,2015-07-30 11:36:00,
2015-07-30 04:41:00,63.8,39.6,29.93,NNE,33,0.0,0.0,41,0.00,CLR,SCT,0.00,0.0,WeatherDisplay:10.37,2015-07-30 11:41:00,
2015-07-30 04:46:00,63.7,39.5,29.93,NNE,33,1.1,1.1,41,0.00,CLR,SCT,0.00,0.0,WeatherDisplay:10.37,2015-07-30 11:46:00,
2015-07-30 04:51:00,63.5,39.4,29.94,NNE,33,1.1,0.0,41,0.00,CLR,SCT,0.00,0.0,WeatherDisplay:10.37,2015-07-30 11:51:00,
2015-07-30 04:56:00,63.3,39.8,29.94,NNE,33,0.0,0.0,42,0.00,CLR,SCT,0.00,0.0,WeatherDisplay:10.37,2015-07-30 11:56:00,
2015-07-30 05:01:00,63.1,39.6,29.94,NNE,33,0.0,0.0,42,0.00,CLR,SCT,0.00,0.0,WeatherDisplay:10.37,2015-07-30 12:01:00,
2015-07-30 05:06:00,62.9,39.4,29.94,NNE,33,1.1,1.1,42,0.00,CLR,SCT,0.00,0.0,WeatherDisplay:10.37,2015-07-30 12:06:00,
2015-07-30 05:11:00,62.8,40.0,29.94,NNE,33,0.0,0.0,43,0.00,CLR,SCT,0.00,0.0,WeatherDisplay:10.37,2015-07-30 12:11:00,
2015-07-30 05:16:00,62.7,39.9,29.94,NNE,33,1.0,0.0,43,0.00,CLR,SCT,0.00,0.0,WeatherDisplay:10.37,2015-07-30 12:16:00,
2015-07-30 05:21:00,62.7,39.3,29.94,NNE,33,1.1,1.1,42,0.00,CLR,SCT,0.00,0.0,WeatherDisplay:10.37,2015-07-30 12:21:00,
2015-07-30 05:26:00,62.7,39.3,29.94,NNE,33,1.1,1.1,42,0.00,CLR,SCT,0.00,0.0,WeatherDisplay:10.37,2015-07-30 12:26:00,
2015-07-30 05:31:00,62.7,39.3,29.94,NNE,33,0.0,0.0,42,0.00,CLR,SCT,0.00,0.0,WeatherDisplay:10.37,2015-07-30 12:31:00,
2015-07-30 05:36:00,62.7,39.9,29.95,NNE,33,0.0,0.0,43,0.00,CLR,SCT,0.00,0.0,WeatherDisplay:10.37,2015-07-30 12:36:00,
2015-07-30 05:41:00,62.6,39.2,29.95,NNE,33,0.0,0.0,42,0.00,CLR,SCT,0.00,0.0,WeatherDisplay:10.37,2015-07-30 12:41:00,
2015-07-30 05:46:00,62.5,39.7,29.95,NE,34,0.0,0.0,43,0.00,CLR,SCT,0.00,0.0,WeatherDisplay:10.37,2015-07-30 12:46:00,
2015-07-30 05:51:00,62.4,39.6,29.95,NE,34,1.1,0.0,43,0.00,CLR,SCT,0.00,0.0,WeatherDisplay:10.37,2015-07-30 12:51:00,
2015-07-30 05:56:00,62.3,39.5,29.95,NE,34,0.0,0.0,43,0.00,CLR,SCT,0.00,0.0,WeatherDisplay:10.37,2015-07-30 12:56:00,
2015-07-30 06:01:00,62.3,39.5,29.95,NE,34,1.1,1.1,43,0.00,CLR,SCT,0.00,0.0,WeatherDisplay:10.37,2015-07-30 13:01:00,
2015-07-30 06:06:00,62.2,40.0,29.95,NE,34,0.0,0.0,44,0.00,CLR,SCT,0.00,0.0,WeatherDisplay:10.37,2015-07-30 13:06:00,
2015-07-30 06:11:00,62.1,39.3,29.95,NE,34,0.0,0.0,43,0.00,CLR,SCT,0.00,0.0,WeatherDisplay:10.37,2015-07-30 13:11:00,
2015-07-30 06:16:00,62.1,39.3,29.95,NE,34,0.0,0.0,43,0.00,CLR,SCT,0.00,0.0,WeatherDisplay:10.37,2015-07-30 13:16:00,
2015-07-30 06:21:00,62.2,39.4,29.95,NNE,14,2.3,2.3,43,0.00,CLR,SCT,0.00,0.0,WeatherDisplay:10.37,2015-07-30 13:21:00,
2015-07-30 06:26:00,62.2,39.4,29.96,NNW,328,1.1,1.1,43,0.00,CLR,SCT,0.00,0.0,WeatherDisplay:10.37,2015-07-30 13:26:00,
2015-07-30 06:31:00,62.3,39.5,29.96,NNW,328,2.0,2.0,43,0.00,CLR,SCT,0.00,0.0,WeatherDisplay:10.37,2015-07-30 13:31:00,
2015-07-30 06:36:00,62.5,39.1,29.96,NNW,328,2.3,2.3,42,0.00,CLR,SCT,0.00,0.0,WeatherDisplay:10.37,2015-07-30 13:36:00,
2015-07-30 06:41:00,62.7,39.9,29.96,NNW,328,0.0,0.0,43,0.00,CLR,SCT,0.00,0.0,WeatherDisplay:10.37,2015-07-30 13:41:00,
2015-07-30 06:46:00,62.9,39.4,29.96,NNW,328,1.1,0.0,42,0.00,CLR,SCT,0.00,0.0,WeatherDisplay:10.37,2015-07-30 13:46:00,
2015-07-30 06:51:00,62.9,39.4,29.96,NNW,328,1.1,1.1,42,0.00,CLR,SCT,0.00,0.0,WeatherDisplay:10.37,2015-07-30 13:51:00,
2015-07-30 06:56:00,63.0,39.5,29.96,NNW,328,1.1,1.1,42,0.00,CLR,SCT,0.00,0.0,WeatherDisplay:10.37,2015-07-30 13:56:00,
2015-07-30 07:01:00,63.0,40.1,29.96,NNW,328,0.0,0.0,43,0.00,CLR,SCT,0.00,0.0,WeatherDisplay:10.37,2015-07-30 14:01:00,
2015-07-30 07:06:00,63.0,41.3,29.96,NNW,328,0.0,0.0,45,0.00,CLR,SCT,0.00,0.0,WeatherDisplay:10.37,2015-07-30 14:06:00,
2015-07-30 07:11:00,62.9,40.0,29.96,NNW,328,1.1,1.1,43,0.00,CLR,SCT,0.00,0.0,WeatherDisplay:10.37,2015-07-30 14:11:00,
2015-07-30 07:16:00,63.0,40.7,29.96,NNW,328,2.3,2.3,44,0.00,CLR,SCT,0.00,0.0,WeatherDisplay:10.37,2015-07-30 14:16:00,
2015-07-30 07:21:00,63.2,40.3,29.96,NNW,329,2.3,2.3,43,0.00,CLR,SCT,0.00,0.0,WeatherDisplay:10.37,2015-07-30 14:21:00,
2015-07-30 07:26:00,63.4,41.7,29.96,NNW,329,0.0,0.0,45,0.00,CLR,SCT,0.00,0.0,WeatherDisplay:10.37,2015-07-30 14:26:00,
2015-07-30 07:31:00,63.6,42.4,29.96,NNW,329,1.1,1.1,46,0.00,CLR,SCT,0.00,0.0,WeatherDisplay:10.37,2015-07-30 14:31:00,
2015-07-30 07:36:00,63.6,43.0,29.96,NNW,329,0.0,0.0,47,0.00,CLR,SCT,0.00,0.0,WeatherDisplay:10.37,2015-07-30 14:36:00,
2015-07-30 07:41:00,63.6,43.0,29.96,NNW,329,1.1,1.1,47,0.00,CLR,SCT,0.00,0.0,WeatherDisplay:10.37,2015-07-30 14:41:00,
2015-07-30 07:46:00,63.7,43.1,29.97,NNW,329,0.0,0.0,47,0.00,CLR,SCT,0.00,0.0,WeatherDisplay:10.37,2015-07-30 14:46:00,
2015-07-30 07:51:00,63.8,43.2,29.97,NNW,329,1.1,0.0,47,0.00,CLR,SCT,0.00,0.0,WeatherDisplay:10.37,2015-07-30 14:51:00,
2015-07-30 07:56:00,64.2,44.1,29.97,NNW,329,1.1,1.1,48,0.00,CLR,SCT,0.00,0.0,WeatherDisplay:10.37,2015-07-30 14:56:00,
2015-07-30 08:06:00,64.9,43.6,29.97,NNW,329,1.1,1.1,46,0.00,CLR,SCT,0.00,0.0,WeatherDisplay:10.37,2015-07-30 15:06:00,
2015-07-30 08:11:00,65.3,42.2,29.97,NNW,329,0.0,0.0,43,0.00,CLR,SCT,0.00,0.0,WeatherDisplay:10.37,2015-07-30 15:11:00,
2015-07-30 08:16:00,65.7,42.6,29.97,NNW,329,1.1,1.1,43,0.00,CLR,SCT,0.00,0.0,WeatherDisplay:10.37,2015-07-30 15:16:00,
2015-07-30 08:21:00,66.4,43.8,29.97,NNW,329,1.1,1.1,44,0.00,CLR,SCT,0.00,0.0,WeatherDisplay:10.37,2015-07-30 15:21:00,
2015-07-30 08:26:00,67.1,43.8,29.97,NNW,329,1.1,1.1,43,0.00,CLR,SCT,0.00,0.0,WeatherDisplay:10.37,2015-07-30 15:26:00,
2015-07-30 08:31:00,67.6,44.3,29.97,NNW,329,0.0,0.0,43,0.00,CLR,SCT,0.00,0.0,WeatherDisplay:10.37,2015-07-30 15:31:00,
2015-07-30 08:36:00,68.0,44.0,29.97,NNW,329,1.1,1.1,42,0.00,CLR,SCT,0.00,0.0,WeatherDisplay:10.37,2015-07-30 15:36:00,
2015-07-30 08:41:00,68.5,44.5,29.97,NNW,329,0.0,0.0,42,0.00,CLR,SCT,0.00,0.0,WeatherDisplay:10.37,2015-07-30 15:41:00,
2015-07-30 08:46:00,68.9,45.5,29.97,NNW,329,0.0,0.0,43,0.00,CLR,SCT,0.00,0.0,WeatherDisplay:10.37,2015-07-30 15:46:00,
2015-07-30 08:51:00,69.4,45.9,29.97,NNW,329,1.1,0.0,43,0.00,CLR,SCT,0.00,0.0,WeatherDisplay:10.37,2015-07-30 15:51:00,
2015-07-30 08:56:00,69.9,46.4,29.97,NNW,329,0.0,0.0,43,0.00,CLR,SCT,0.00,0.0,WeatherDisplay:10.37,2015-07-30 15:56:00,
2015-07-30 09:01:00,70.5,46.9,29.97,NNW,329,1.1,0.0,43,0.00,CLR,SCT,0.00,0.0,WeatherDisplay:10.37,2015-07-30 16:01:00,
2015-07-30 09:06:00,71.3,48.3,29.97,NNW,329,0.0,0.0,44,0.00,CLR,SCT,0.00,0.0,WeatherDisplay:10.37,2015-07-30 16:06:00,
2015-07-30 09:11:00,72.0,48.3,29.97,NNW,329,0.0,0.0,43,0.00,CLR,SCT,0.00,0.0,WeatherDisplay:10.37,2015-07-30 16:11:00,
2015-07-30 09:16:00,72.6,48.2,29.96,NNW,329,1.1,1.1,42,0.00,CLR,SCT,0.00,0.0,WeatherDisplay:10.37,2015-07-30 16:16:00,
2015-07-30 09:21:00,73.3,46.8,29.96,NNW,329,0.0,0.0,39,0.00,CLR,SCT,0.00,0.0,WeatherDisplay:10.37,2015-07-30 16:21:00,
2015-07-30 09:26:00,74.3,48.4,29.96,NNW,329,1.1,1.1,40,0.00,CLR,SCT,0.00,0.0,WeatherDisplay:10.37,2015-07-30 16:26:00,
2015-07-30 09:31:00,75.3,48.6,29.96,NNW,329,1.1,0.0,39,0.00,CLR,SCT,0.00,0.0,WeatherDisplay:10.37,2015-07-30 16:31:00,
2015-07-30 09:36:00,76.9,47.2,29.96,NNW,329,0.0,0.0,35,0.00,CLR,SCT,0.00,0.0,WeatherDisplay:10.37,2015-07-30 16:36:00,
2015-07-30 09:41:00,78.4,47.7,29.96,NNW,329,0.0,0.0,34,0.00,CLR,SCT,0.00,0.0,WeatherDisplay:10.37,2015-07-30 16:41:00,
2015-07-30 09:46:00,80.1,50.7,29.96,NNW,329,1.1,1.1,36,0.00,CLR,SCT,0.00,0.0,WeatherDisplay:10.37,2015-07-30 16:46:00,
2015-07-30 09:51:00,81.4,51.1,29.96,NNW,329,1.1,1.1,35,0.00,CLR,SCT,0.00,0.0,WeatherDisplay:10.37,2015-07-30 16:51:00,
2015-07-30 09:56:00,82.5,51.3,29.96,NNW,329,0.0,0.0,34,0.00,CLR,SCT,0.00,0.0,WeatherDisplay:10.37,2015-07-30 16:56:00,
2015-07-30 10:01:00,83.6,53.8,29.95,NNW,329,1.1,1.1,36,0.00,CLR,SCT,0.00,0.0,WeatherDisplay:10.37,2015-07-30 17:01:00,
2015-07-30 10:06:00,84.6,49.7,29.95,ENE,65,1.1,1.1,30,0.00,CLR,SCT,0.00,0.0,WeatherDisplay:10.37,2015-07-30 17:06:00,
2015-07-30 10:11:00,85.3,44.4,29.96,ESE,112,3.5,3.5,24,0.00,CLR,SCT,0.00,0.0,WeatherDisplay:10.37,2015-07-30 17:11:00,
2015-07-30 10:16:00,86.3,40.5,29.96,ESE,109,3.5,3.5,20,0.00,CLR,SCT,0.00,0.0,WeatherDisplay:10.37,2015-07-30 17:16:00,
2015-07-30 10:21:00,87.4,38.7,29.96,ESE,104,5.8,5.8,18,0.00,CLR,SCT,0.00,0.0,WeatherDisplay:10.37,2015-07-30 17:21:00,
2015-07-30 10:26:00,88.2,39.3,29.96,ESE,104,3.5,3.5,18,0.00,CLR,SCT,0.00,0.0,WeatherDisplay:10.37,2015-07-30 17:26:00,
2015-07-30 10:31:00,88.9,41.3,29.96,SE,132,3.5,3.5,19,0.00,CLR,SCT,0.00,0.0,WeatherDisplay:10.37,2015-07-30 17:31:00,
2015-07-30 10:36:00,89.3,38.8,29.96,ESE,117,7.0,7.0,17,0.00,CLR,SCT,0.00,0.0,WeatherDisplay:10.37,2015-07-30 17:36:00,
2015-07-30 10:41:00,89.5,35.7,29.97,SE,128,6.9,6.9,15,0.00,CLR,SCT,0.00,0.0,WeatherDisplay:10.37,2015-07-30 17:41:00,
2015-07-30 10:46:00,89.5,37.4,29.97,East,88,5.8,5.8,16,0.00,CLR,SCT,0.00,0.0,WeatherDisplay:10.37,2015-07-30 17:46:00,
2015-07-30 10:51:00,89.8,39.2,29.97,ESE,109,4.0,4.0,17,0.00,CLR,SCT,0.00,0.0,WeatherDisplay:10.37,2015-07-30 17:51:00,
2015-07-30 10:56:00,90.2,39.5,29.97,ESE,107,3.5,3.5,17,0.00,CLR,SCT,0.00,0.0,WeatherDisplay:10.37,2015-07-30 17:56:00,
2015-07-30 11:01:00,90.3,39.6,29.97,WSW,254,2.3,2.3,17,0.00,CLR,SCT,0.00,0.0,WeatherDisplay:10.37,2015-07-30 18:01:00,
2015-07-30 11:06:00,90.7,39.9,29.97,NNW,332,3.5,3.5,17,0.00,CLR,SCT,0.00,0.0,WeatherDisplay:10.37,2015-07-30 18:06:00,
2015-07-30 11:11:00,90.8,38.4,29.97,SE,129,6.9,6.9,16,0.00,CLR,SCT,0.00,0.0,WeatherDisplay:10.37,2015-07-30 18:11:00,
2015-07-30 11:16:00,91.1,40.2,29.97,ESE,109,3.5,3.5,17,0.00,CLR,SCT,0.00,0.0,WeatherDisplay:10.37,2015-07-30 18:16:00,
2015-07-30 11:21:00,91.2,40.3,29.97,East,101,6.9,6.9,17,0.00,CLR,SCT,0.00,0.0,WeatherDisplay:10.37,2015-07-30 18:21:00,
2015-07-30 11:26:00,91.3,40.4,29.97,WSW,237,2.3,2.3,17,0.00,CLR,SCT,0.00,0.0,WeatherDisplay:10.37,2015-07-30 18:26:00,
2015-07-30 11:31:00,91.5,40.5,29.97,East,88,9.2,9.2,17,0.00,CLR,SCT,0.00,0.0,WeatherDisplay:10.37,2015-07-30 18:31:00,
2015-07-30 11:36:00,91.5,39.0,29.97,ESE,114,8.1,8.1,16,0.00,CLR,SCT,0.00,0.0,WeatherDisplay:10.37,2015-07-30 18:36:00,
2015-07-30 11:41:00,91.8,42.3,29.97,East,96,3.5,3.5,18,0.00,CLR,SCT,0.00,0.0,WeatherDisplay:10.37,2015-07-30 18:41:00,
2015-07-30 11:46:00,92.2,44.0,29.97,NW,316,2.3,2.3,19,0.00,CLR,SCT,0.00,0.0,WeatherDisplay:10.37,2015-07-30 18:46:00,
2015-07-30 11:51:00,92.9,41.7,29.97,ESE,109,3.5,3.5,17,0.00,CLR,SCT,0.00,0.0,WeatherDisplay:10.37,2015-07-30 18:51:00,
2015-07-30 11:56:00,93.1,40.3,29.97,ESE,111,6.0,6.0,16,0.00,CLR,SCT,0.00,0.0,WeatherDisplay:10.37,2015-07-30 18:56:00,
2015-07-30 12:01:00,92.9,41.7,29.97,ESE,110,3.5,3.5,17,0.00,CLR,SCT,0.00,0.0,WeatherDisplay:10.37,2015-07-30 19:01:00,
2015-07-30 12:06:00,92.9,43.1,29.97,SE,128,2.3,2.3,18,0.00,CLR,SCT,0.00,0.0,WeatherDisplay:10.37,2015-07-30 19:06:00,
2015-07-30 12:11:00,93.2,41.9,29.97,ESE,109,3.5,3.5,17,0.00,CLR,SCT,0.00,0.0,WeatherDisplay:10.37,2015-07-30 19:11:00,
2015-07-30 12:16:00,93.2,43.4,29.97,East,90,4.0,4.0,18,0.00,CLR,SCT,0.00,0.0,WeatherDisplay:10.37,2015-07-30 19:16:00,
2015-07-30 12:21:00,93.2,43.4,29.96,ESE,109,10.4,10.4,18,0.00,CLR,SCT,0.00,0.0,WeatherDisplay:10.37,2015-07-30 19:21:00,
2015-07-30 12:26:00,93.3,43.5,29.96,East,82,5.0,5.0,18,0.00,CLR,SCT,0.00,0.0,WeatherDisplay:10.37,2015-07-30 19:26:00,
2015-07-30 12:31:00,93.5,43.6,29.96,ESE,121,5.8,5.8,18,0.00,CLR,SCT,0.00,0.0,WeatherDisplay:10.37,2015-07-30 19:31:00,
2015-07-30 12:36:00,93.8,45.3,29.96,NNW,327,1.1,1.1,19,0.00,CLR,SCT,0.00,0.0,WeatherDisplay:10.37,2015-07-30 19:36:00,
2015-07-30 12:41:00,94.5,44.4,29.96,ESE,108,6.9,6.9,18,0.00,CLR,SCT,0.00,0.0,WeatherDisplay:10.37,2015-07-30 19:41:00,
2015-07-30 12:46:00,94.7,43.1,29.96,East,87,6.9,6.9,17,0.00,CLR,SCT,0.00,0.0,WeatherDisplay:10.37,2015-07-30 19:46:00,
2015-07-30 12:51:00,94.6,43.0,29.96,WSW,252,3.5,3.5,17,0.00,CLR,SCT,0.00,0.0,WeatherDisplay:10.37,2015-07-30 19:51:00,
2015-07-30 12:56:00,94.9,41.7,29.96,WNW,299,6.9,6.9,16,0.00,CLR,SCT,0.00,0.0,WeatherDisplay:10.37,2015-07-30 19:56:00,
2015-07-30 13:01:00,94.5,42.9,29.96,NW,325,3.5,3.5,17,0.00,CLR,SCT,0.00,0.0,WeatherDisplay:10.37,2015-07-30 20:01:00,
2015-07-30 13:06:00,94.7,43.1,29.96,East,80,7.0,7.0,17,0.00,CLR,SCT,0.00,0.0,WeatherDisplay:10.37,2015-07-30 20:06:00,
2015-07-30 13:11:00,95.2,41.9,29.96,NW,311,3.5,3.5,16,0.00,CLR,SCT,0.00,0.0,WeatherDisplay:10.37,2015-07-30 20:11:00,
2015-07-30 13:16:00,95.5,43.8,29.96,NW,313,4.0,4.0,17,0.00,CLR,SCT,0.00,0.0,WeatherDisplay:10.37,2015-07-30 20:16:00,
2015-07-30 13:21:00,95.1,41.9,29.96,West,267,2.3,2.3,16,0.00,CLR,SCT,0.00,0.0,WeatherDisplay:10.37,2015-07-30 20:21:00,
2015-07-30 13:26:00,95.1,41.9,29.95,NW,315,3.5,3.5,16,0.00,CLR,SCT,0.00,0.0,WeatherDisplay:10.37,2015-07-30 20:26:00,
2015-07-30 13:31:00,95.0,41.8,29.95,ESE,115,3.5,3.5,16,0.00,CLR,SCT,0.00,0.0,WeatherDisplay:10.37,2015-07-30 20:31:00,
2015-07-30 13:36:00,95.2,41.9,29.95,ESE,110,3.5,3.5,16,0.00,CLR,SCT,0.00,0.0,WeatherDisplay:10.37,2015-07-30 20:36:00,
2015-07-30 13:41:00,95.0,41.8,29.95,ESE,109,10.4,10.4,16,0.00,CLR,SCT,0.00,0.0,WeatherDisplay:10.37,2015-07-30 20:41:00,
2015-07-30 13:46:00,94.4,42.9,29.95,SE,146,6.9,6.9,17,0.00,CLR,SCT,0.00,0.0,WeatherDisplay:10.37,2015-07-30 20:46:00,
2015-07-30 13:51:00,94.9,43.3,29.95,East,101,6.0,6.0,17,0.00,CLR,SCT,0.00,0.0,WeatherDisplay:10.37,2015-07-30 20:51:00,
2015-07-30 13:56:00,95.1,43.4,29.95,SE,124,3.5,3.5,17,0.00,CLR,SCT,0.00,0.0,WeatherDisplay:10.37,2015-07-30 20:56:00,
2015-07-30 14:01:00,95.4,40.4,29.95,NW,313,8.1,8.1,15,0.00,CLR,SCT,0.00,0.0,WeatherDisplay:10.37,2015-07-30 21:01:00,
2015-07-30 14:06:00,95.0,43.4,29.95,NNE,21,11.5,11.5,17,0.00,CLR,SCT,0.00,0.0,WeatherDisplay:10.37,2015-07-30 21:06:00,
2015-07-30 14:11:00,95.1,40.2,29.95,ESE,113,4.6,4.6,15,0.00,CLR,SCT,0.00,0.0,WeatherDisplay:10.37,2015-07-30 21:11:00,
2015-07-30 14:16:00,95.2,41.9,29.94,ESE,109,10.4,10.4,16,0.00,CLR,SCT,0.00,0.0,WeatherDisplay:10.37,2015-07-30 21:16:00,
2015-07-30 14:21:00,95.5,42.2,29.95,WNW,296,4.0,4.0,16,0.00,CLR,SCT,0.00,0.0,WeatherDisplay:10.37,2015-07-30 21:21:00,
2015-07-30 14:26:00,95.5,40.5,29.94,NW,311,5.0,5.0,15,0.00,CLR,SCT,0.00,0.0,WeatherDisplay:10.37,2015-07-30 21:26:00,
2015-07-30 14:31:00,95.2,41.9,29.94,SSW,211,3.5,3.5,16,0.00,CLR,SCT,0.00,0.0,WeatherDisplay:10.37,2015-07-30 21:31:00,
2015-07-30 14:36:00,95.2,40.3,29.94,East,90,3.5,3.5,15,0.00,CLR,SCT,0.00,0.0,WeatherDisplay:10.37,2015-07-30 21:36:00,
2015-07-30 14:41:00,95.7,40.7,29.94,ESE,113,6.9,6.9,15,0.00,CLR,SCT,0.00,0.0,WeatherDisplay:10.37,2015-07-30 21:41:00,
2015-07-30 14:46:00,95.6,40.6,29.94,ESE,108,6.9,6.9,15,0.00,CLR,SCT,0.00,0.0,WeatherDisplay:10.37,2015-07-30 21:46:00,
2015-07-30 14:51:00,95.5,40.5,29.93,ESE,110,6.0,6.0,15,0.00,CLR,SCT,0.00,0.0,WeatherDisplay:10.37,2015-07-30 21:51:00,
2015-07-30 14:56:00,95.0,40.1,29.94,SE,141,4.0,4.0,15,0.00,CLR,SCT,0.00,0.0,WeatherDisplay:10.37,2015-07-30 21:56:00,
2015-07-30 15:01:00,95.2,43.5,29.93,ESE,105,4.0,4.0,17,0.00,CLR,SCT,0.00,0.0,WeatherDisplay:10.37,2015-07-30 22:01:00,
2015-07-30 15:06:00,95.2,41.9,29.93,NNE,24,6.9,6.9,16,0.00,CLR,SCT,0.00,0.0,WeatherDisplay:10.37,2015-07-30 22:06:00,
2015-07-30 15:11:00,95.4,43.7,29.93,SE,140,5.8,5.8,17,0.00,CLR,SCT,0.00,0.0,WeatherDisplay:10.37,2015-07-30 22:11:00,
2015-07-30 15:16:00,95.8,42.4,29.93,East,99,9.2,9.2,16,0.00,CLR,SCT,0.00,0.0,WeatherDisplay:10.37,2015-07-30 22:16:00,
2015-07-30 15:21:00,95.8,42.4,29.93,ESE,115,5.8,5.8,16,0.00,CLR,SCT,0.00,0.0,WeatherDisplay:10.37,2015-07-30 22:21:00,
2015-07-30 15:26:00,95.3,40.3,29.93,WNW,296,4.6,4.6,15,0.00,CLR,SCT,0.00,0.0,WeatherDisplay:10.37,2015-07-30 22:26:00,
2015-07-30 15:31:00,94.9,41.7,29.92,NW,308,3.5,3.5,16,0.00,CLR,SCT,0.00,0.0,WeatherDisplay:10.37,2015-07-30 22:31:00,
2015-07-30 15:36:00,95.1,41.9,29.92,NE,38,3.5,3.5,16,0.00,CLR,SCT,0.00,0.0,WeatherDisplay:10.37,2015-07-30 22:36:00,
2015-07-30 15:41:00,95.3,40.3,29.92,ESE,121,4.6,4.6,15,0.00,CLR,SCT,0.00,0.0,WeatherDisplay:10.37,2015-07-30 22:41:00,
2015-07-30 15:46:00,95.3,42.0,29.92,ESE,106,8.1,8.1,16,0.00,CLR,SCT,0.00,0.0,WeatherDisplay:10.37,2015-07-30 22:46:00,
2015-07-30 15:51:00,95.4,43.7,29.92,East,93,5.8,5.8,17,0.00,CLR,SCT,0.00,0.0,WeatherDisplay:10.37,2015-07-30 22:51:00,
2015-07-30 15:56:00,95.8,42.4,29.92,ESE,113,7.0,7.0,16,0.00,CLR,SCT,0.00,0.0,WeatherDisplay:10.37,2015-07-30 22:56:00,
2015-07-30 16:01:00,95.8,42.4,29.92,ESE,113,8.1,8.1,16,0.00,CLR,SCT,0.00,0.0,WeatherDisplay:10.37,2015-07-30 23:01:00,
2015-07-30 16:06:00,95.0,41.8,29.92,East,80,3.5,3.5,16,0.00,CLR,SCT,0.00,0.0,WeatherDisplay:10.37,2015-07-30 23:06:00,
2015-07-30 16:11:00,94.8,41.6,29.92,ESE,103,6.9,6.9,16,0.00,CLR,SCT,0.00,0.0,WeatherDisplay:10.37,2015-07-30 23:11:00,
2015-07-30 16:16:00,94.4,42.9,29.92,SE,128,3.0,3.0,17,0.00,CLR,SCT,0.00,0.0,WeatherDisplay:10.37,2015-07-30 23:16:00,
2015-07-30 16:21:00,94.5,42.9,29.92,East,101,8.1,8.1,17,0.00,CLR,SCT,0.00,0.0,WeatherDisplay:10.37,2015-07-30 23:21:00,
2015-07-30 16:26:00,94.6,46.0,29.91,SW,226,3.5,3.5,19,0.00,CLR,SCT,0.00,0.0,WeatherDisplay:10.37,2015-07-30 23:26:00,
2015-07-30 16:36:00,94.3,42.8,29.91,ESE,123,4.0,4.0,17,0.00,CLR,SCT,0.00,0.0,WeatherDisplay:10.37,2015-07-30 23:36:00,
2015-07-30 16:41:00,93.8,42.4,29.91,NW,304,4.6,4.6,17,0.00,CLR,SCT,0.00,0.0,WeatherDisplay:10.37,2015-07-30 23:41:00,
2015-07-30 16:46:00,93.1,43.3,29.91,ESE,103,7.0,7.0,18,0.00,CLR,SCT,0.00,0.0,WeatherDisplay:10.37,2015-07-30 23:46:00,
2015-07-30 16:51:00,93.0,43.2,29.91,SE,131,4.0,4.0,18,0.00,CLR,SCT,0.00,0.0,WeatherDisplay:10.37,2015-07-30 23:51:00,
2015-07-30 16:56:00,92.8,43.1,29.91,ESE,119,6.9,6.9,18,0.00,CLR,SCT,0.00,0.0,WeatherDisplay:10.37,2015-07-30 23:56:00,
2015-07-30 17:01:00,92.8,43.1,29.91,ESE,106,3.5,3.5,18,0.00,CLR,SCT,0.00,0.0,WeatherDisplay:10.37,2015-07-31 00:01:00,